sensor_id;sensor_type;location;lat;lon;timestamp;P1;durP1;ratioP1;P2;durP2;ratioP2
66870;SDS011;53780;44.998;9.926;2023-04-30T00:02:35;36.08;;;20.42;;
66870;SDS011;53780;44.998;9.926;2023-04-30T00:05:39;35.80;;;19.38;;
66870;SDS011;53780;44.998;9.926;2023-04-30T00:08:43;35.30;;;18.70;;
66870;SDS011;53780;44.998;9.926;2023-04-30T00:11:46;33.50;;;18.23;;
66870;SDS011;53780;44.998;9.926;2023-04-30T00:14:50;32.95;;;18.70;;
66870;SDS011;53780;44.998;9.926;2023-04-30T00:17:54;32.53;;;18.70;;
66870;SDS011;53780;44.998;9.926;2023-04-30T00:20:57;32.00;;;18.17;;
66870;SDS011;53780;44.998;9.926;2023-04-30T00:24:01;34.53;;;18.20;;
66870;SDS011;53780;44.998;9.926;2023-04-30T00:27:06;30.92;;;18.33;;
66870;SDS011;53780;44.998;9.926;2023-04-30T00:30:10;31.13;;;18.73;;
66870;SDS011;53780;44.998;9.926;2023-04-30T00:33:14;35.90;;;19.00;;
66870;SDS011;53780;44.998;9.926;2023-04-30T00:36:18;33.47;;;18.23;;
66870;SDS011;53780;44.998;9.926;2023-04-30T00:39:22;34.57;;;18.87;;
66870;SDS011;53780;44.998;9.926;2023-04-30T00:42:25;34.63;;;18.45;;
66870;SDS011;53780;44.998;9.926;2023-04-30T00:45:29;34.00;;;19.20;;
66870;SDS011;53780;44.998;9.926;2023-04-30T00:48:33;34.25;;;18.70;;
66870;SDS011;53780;44.998;9.926;2023-04-30T00:51:38;32.28;;;18.48;;
66870;SDS011;53780;44.998;9.926;2023-04-30T00:54:44;36.37;;;19.10;;
66870;SDS011;53780;44.998;9.926;2023-04-30T00:57:47;31.95;;;18.33;;
66870;SDS011;53780;44.998;9.926;2023-04-30T01:00:51;35.25;;;18.73;;
66870;SDS011;53780;44.998;9.926;2023-04-30T01:03:56;37.67;;;18.65;;
66870;SDS011;53780;44.998;9.926;2023-04-30T01:07:00;37.42;;;18.10;;
66870;SDS011;53780;44.998;9.926;2023-04-30T01:10:05;33.87;;;18.90;;
66870;SDS011;53780;44.998;9.926;2023-04-30T01:13:33;32.97;;;18.20;;
66870;SDS011;53780;44.998;9.926;2023-04-30T01:17:07;31.30;;;17.80;;
66870;SDS011;53780;44.998;9.926;2023-04-30T01:20:20;32.15;;;17.05;;
66870;SDS011;53780;44.998;9.926;2023-04-30T01:30:10;33.53;;;18.77;;
66870;SDS011;53780;44.998;9.926;2023-04-30T01:33:15;35.17;;;18.50;;
66870;SDS011;53780;44.998;9.926;2023-04-30T01:46:36;36.88;;;19.63;;
66870;SDS011;53780;44.998;9.926;2023-04-30T01:53:12;37.17;;;19.55;;
66870;SDS011;53780;44.998;9.926;2023-04-30T01:56:31;36.55;;;19.75;;
66870;SDS011;53780;44.998;9.926;2023-04-30T01:59:40;35.40;;;19.40;;
66870;SDS011;53780;44.998;9.926;2023-04-30T02:02:46;33.08;;;19.23;;
66870;SDS011;53780;44.998;9.926;2023-04-30T02:05:50;37.15;;;20.90;;
66870;SDS011;53780;44.998;9.926;2023-04-30T02:08:53;38.90;;;19.42;;
66870;SDS011;53780;44.998;9.926;2023-04-30T02:12:08;38.13;;;20.40;;
66870;SDS011;53780;44.998;9.926;2023-04-30T02:15:13;35.20;;;20.27;;
66870;SDS011;53780;44.998;9.926;2023-04-30T02:18:17;38.28;;;20.17;;
66870;SDS011;53780;44.998;9.926;2023-04-30T02:21:21;36.95;;;21.10;;
66870;SDS011;53780;44.998;9.926;2023-04-30T02:24:25;37.15;;;20.42;;
66870;SDS011;53780;44.998;9.926;2023-04-30T02:27:30;38.25;;;20.58;;
66870;SDS011;53780;44.998;9.926;2023-04-30T02:30:35;35.77;;;19.87;;
66870;SDS011;53780;44.998;9.926;2023-04-30T02:33:39;35.30;;;19.85;;
66870;SDS011;53780;44.998;9.926;2023-04-30T02:36:43;37.78;;;21.25;;
66870;SDS011;53780;44.998;9.926;2023-04-30T02:39:47;39.33;;;20.58;;
66870;SDS011;53780;44.998;9.926;2023-04-30T02:42:51;39.20;;;20.10;;
66870;SDS011;53780;44.998;9.926;2023-04-30T02:45:57;37.30;;;20.43;;
66870;SDS011;53780;44.998;9.926;2023-04-30T02:49:01;38.65;;;21.45;;
66870;SDS011;53780;44.998;9.926;2023-04-30T02:52:04;41.17;;;21.52;;
66870;SDS011;53780;44.998;9.926;2023-04-30T02:55:11;41.60;;;21.98;;
66870;SDS011;53780;44.998;9.926;2023-04-30T02:58:15;41.45;;;22.55;;
66870;SDS011;53780;44.998;9.926;2023-04-30T03:01:19;43.00;;;22.17;;
66870;SDS011;53780;44.998;9.926;2023-04-30T03:04:23;41.13;;;22.08;;
66870;SDS011;53780;44.998;9.926;2023-04-30T03:07:27;41.33;;;22.60;;
66870;SDS011;53780;44.998;9.926;2023-04-30T03:10:31;42.55;;;23.02;;
66870;SDS011;53780;44.998;9.926;2023-04-30T03:13:35;41.40;;;22.05;;
66870;SDS011;53780;44.998;9.926;2023-04-30T03:16:38;39.90;;;21.70;;
66870;SDS011;53780;44.998;9.926;2023-04-30T03:19:43;43.17;;;22.75;;
66870;SDS011;53780;44.998;9.926;2023-04-30T03:22:46;47.00;;;24.20;;
66870;SDS011;53780;44.998;9.926;2023-04-30T03:25:50;47.15;;;24.52;;
66870;SDS011;53780;44.998;9.926;2023-04-30T03:28:54;43.33;;;22.33;;
66870;SDS011;53780;44.998;9.926;2023-04-30T03:31:58;39.53;;;22.13;;
66870;SDS011;53780;44.998;9.926;2023-04-30T03:35:02;42.97;;;23.13;;
66870;SDS011;53780;44.998;9.926;2023-04-30T03:38:06;41.63;;;22.83;;
66870;SDS011;53780;44.998;9.926;2023-04-30T03:41:10;44.30;;;23.25;;
66870;SDS011;53780;44.998;9.926;2023-04-30T03:44:15;42.63;;;23.48;;
66870;SDS011;53780;44.998;9.926;2023-04-30T03:47:18;46.37;;;23.33;;
66870;SDS011;53780;44.998;9.926;2023-04-30T03:50:23;47.33;;;22.90;;
66870;SDS011;53780;44.998;9.926;2023-04-30T03:53:27;43.75;;;23.20;;
66870;SDS011;53780;44.998;9.926;2023-04-30T03:56:32;44.03;;;23.08;;
66870;SDS011;53780;44.998;9.926;2023-04-30T03:59:36;44.63;;;23.92;;
66870;SDS011;53780;44.998;9.926;2023-04-30T04:02:40;41.67;;;23.00;;
66870;SDS011;53780;44.998;9.926;2023-04-30T04:05:46;41.65;;;22.52;;
66870;SDS011;53780;44.998;9.926;2023-04-30T04:08:50;41.80;;;23.08;;
66870;SDS011;53780;44.998;9.926;2023-04-30T04:11:54;41.95;;;22.48;;
66870;SDS011;53780;44.998;9.926;2023-04-30T04:14:58;45.05;;;24.42;;
66870;SDS011;53780;44.998;9.926;2023-04-30T04:18:02;44.30;;;23.40;;
66870;SDS011;53780;44.998;9.926;2023-04-30T04:21:06;44.85;;;23.50;;
66870;SDS011;53780;44.998;9.926;2023-04-30T04:24:10;43.38;;;23.23;;
66870;SDS011;53780;44.998;9.926;2023-04-30T04:27:15;48.00;;;24.13;;
66870;SDS011;53780;44.998;9.926;2023-04-30T04:30:19;42.50;;;23.67;;
66870;SDS011;53780;44.998;9.926;2023-04-30T04:33:24;44.77;;;23.37;;
66870;SDS011;53780;44.998;9.926;2023-04-30T04:36:29;45.33;;;24.55;;
66870;SDS011;53780;44.998;9.926;2023-04-30T04:39:34;45.72;;;23.85;;
66870;SDS011;53780;44.998;9.926;2023-04-30T04:42:40;43.50;;;23.50;;
66870;SDS011;53780;44.998;9.926;2023-04-30T04:45:44;44.22;;;23.40;;
66870;SDS011;53780;44.998;9.926;2023-04-30T04:48:49;41.00;;;23.17;;
66870;SDS011;53780;44.998;9.926;2023-04-30T04:51:53;46.92;;;23.88;;
66870;SDS011;53780;44.998;9.926;2023-04-30T04:54:57;46.08;;;24.60;;
66870;SDS011;53780;44.998;9.926;2023-04-30T04:58:00;49.50;;;23.73;;
66870;SDS011;53780;44.998;9.926;2023-04-30T05:01:04;44.17;;;23.83;;
66870;SDS011;53780;44.998;9.926;2023-04-30T05:04:08;45.80;;;24.23;;
66870;SDS011;53780;44.998;9.926;2023-04-30T05:07:12;44.40;;;23.38;;
66870;SDS011;53780;44.998;9.926;2023-04-30T05:10:16;43.10;;;23.73;;
66870;SDS011;53780;44.998;9.926;2023-04-30T05:13:20;47.88;;;23.23;;
66870;SDS011;53780;44.998;9.926;2023-04-30T05:16:24;45.10;;;23.10;;
66870;SDS011;53780;44.998;9.926;2023-04-30T05:19:29;45.33;;;23.03;;
66870;SDS011;53780;44.998;9.926;2023-04-30T05:22:33;40.05;;;21.70;;
66870;SDS011;53780;44.998;9.926;2023-04-30T05:25:37;43.25;;;24.38;;
66870;SDS011;53780;44.998;9.926;2023-04-30T05:28:42;39.30;;;22.02;;
66870;SDS011;53780;44.998;9.926;2023-04-30T05:31:45;41.25;;;22.98;;
66870;SDS011;53780;44.998;9.926;2023-04-30T05:34:49;40.47;;;21.93;;
66870;SDS011;53780;44.998;9.926;2023-04-30T05:37:53;38.97;;;22.45;;
66870;SDS011;53780;44.998;9.926;2023-04-30T05:40:57;42.97;;;22.65;;
66870;SDS011;53780;44.998;9.926;2023-04-30T05:44:01;41.13;;;22.25;;
66870;SDS011;53780;44.998;9.926;2023-04-30T05:47:07;43.20;;;22.17;;
66870;SDS011;53780;44.998;9.926;2023-04-30T05:50:11;39.57;;;21.13;;
66870;SDS011;53780;44.998;9.926;2023-04-30T05:53:15;37.78;;;19.77;;
66870;SDS011;53780;44.998;9.926;2023-04-30T05:56:19;39.17;;;20.52;;
66870;SDS011;53780;44.998;9.926;2023-04-30T05:59:23;37.50;;;18.88;;
66870;SDS011;53780;44.998;9.926;2023-04-30T06:02:28;36.17;;;19.52;;
66870;SDS011;53780;44.998;9.926;2023-04-30T06:05:31;32.70;;;19.03;;
66870;SDS011;53780;44.998;9.926;2023-04-30T06:08:35;31.27;;;17.55;;
66870;SDS011;53780;44.998;9.926;2023-04-30T06:11:39;32.00;;;17.58;;
66870;SDS011;53780;44.998;9.926;2023-04-30T06:14:43;31.17;;;17.27;;
66870;SDS011;53780;44.998;9.926;2023-04-30T06:17:48;29.10;;;16.13;;
66870;SDS011;53780;44.998;9.926;2023-04-30T06:20:52;30.57;;;15.77;;
66870;SDS011;53780;44.998;9.926;2023-04-30T06:23:55;31.95;;;16.45;;
66870;SDS011;53780;44.998;9.926;2023-04-30T06:26:59;30.48;;;16.92;;
66870;SDS011;53780;44.998;9.926;2023-04-30T06:30:03;28.27;;;15.30;;
66870;SDS011;53780;44.998;9.926;2023-04-30T06:33:08;27.23;;;15.55;;
66870;SDS011;53780;44.998;9.926;2023-04-30T06:36:12;26.83;;;15.90;;
66870;SDS011;53780;44.998;9.926;2023-04-30T06:39:16;27.92;;;15.40;;
66870;SDS011;53780;44.998;9.926;2023-04-30T06:42:20;25.08;;;15.38;;
66870;SDS011;53780;44.998;9.926;2023-04-30T06:45:24;23.92;;;15.20;;
66870;SDS011;53780;44.998;9.926;2023-04-30T06:48:28;25.52;;;15.02;;
66870;SDS011;53780;44.998;9.926;2023-04-30T06:51:33;23.87;;;14.63;;
66870;SDS011;53780;44.998;9.926;2023-04-30T06:54:37;25.00;;;14.60;;
66870;SDS011;53780;44.998;9.926;2023-04-30T06:57:41;23.92;;;14.63;;
66870;SDS011;53780;44.998;9.926;2023-04-30T07:00:45;22.42;;;14.27;;
66870;SDS011;53780;44.998;9.926;2023-04-30T07:03:50;24.65;;;14.73;;
66870;SDS011;53780;44.998;9.926;2023-04-30T07:06:57;23.73;;;15.87;;
66870;SDS011;53780;44.998;9.926;2023-04-30T07:10:04;28.67;;;17.08;;
66870;SDS011;53780;44.998;9.926;2023-04-30T07:13:09;26.63;;;17.63;;
66870;SDS011;53780;44.998;9.926;2023-04-30T07:16:13;28.17;;;17.05;;
66870;SDS011;53780;44.998;9.926;2023-04-30T07:19:19;29.27;;;18.08;;
66870;SDS011;53780;44.998;9.926;2023-04-30T07:22:23;29.00;;;17.67;;
66870;SDS011;53780;44.998;9.926;2023-04-30T07:25:27;29.92;;;18.08;;
66870;SDS011;53780;44.998;9.926;2023-04-30T07:28:31;32.08;;;18.10;;
66870;SDS011;53780;44.998;9.926;2023-04-30T07:31:35;34.55;;;19.55;;
66870;SDS011;53780;44.998;9.926;2023-04-30T07:34:39;34.78;;;20.05;;
66870;SDS011;53780;44.998;9.926;2023-04-30T07:37:43;35.33;;;19.83;;
66870;SDS011;53780;44.998;9.926;2023-04-30T07:40:47;33.53;;;18.63;;
66870;SDS011;53780;44.998;9.926;2023-04-30T07:43:51;33.47;;;19.35;;
66870;SDS011;53780;44.998;9.926;2023-04-30T07:46:55;31.88;;;19.27;;
66870;SDS011;53780;44.998;9.926;2023-04-30T07:49:59;30.98;;;18.17;;
66870;SDS011;53780;44.998;9.926;2023-04-30T07:53:03;33.77;;;18.47;;
66870;SDS011;53780;44.998;9.926;2023-04-30T07:56:11;30.98;;;18.00;;
66870;SDS011;53780;44.998;9.926;2023-04-30T07:59:15;32.08;;;18.67;;
66870;SDS011;53780;44.998;9.926;2023-04-30T08:02:19;25.95;;;16.05;;
66870;SDS011;53780;44.998;9.926;2023-04-30T08:05:23;27.23;;;15.95;;
66870;SDS011;53780;44.998;9.926;2023-04-30T08:08:27;27.17;;;16.73;;
66870;SDS011;53780;44.998;9.926;2023-04-30T08:11:31;24.67;;;15.70;;
66870;SDS011;53780;44.998;9.926;2023-04-30T08:14:35;24.33;;;15.77;;
66870;SDS011;53780;44.998;9.926;2023-04-30T08:17:38;23.40;;;14.55;;
66870;SDS011;53780;44.998;9.926;2023-04-30T08:20:42;23.58;;;13.95;;
66870;SDS011;53780;44.998;9.926;2023-04-30T08:23:46;23.60;;;13.17;;
66870;SDS011;53780;44.998;9.926;2023-04-30T08:26:50;22.42;;;14.60;;
66870;SDS011;53780;44.998;9.926;2023-04-30T08:29:54;23.55;;;12.88;;
66870;SDS011;53780;44.998;9.926;2023-04-30T08:32:57;20.40;;;12.20;;
66870;SDS011;53780;44.998;9.926;2023-04-30T08:36:01;19.02;;;11.63;;
66870;SDS011;53780;44.998;9.926;2023-04-30T08:39:05;19.33;;;11.60;;
66870;SDS011;53780;44.998;9.926;2023-04-30T08:42:11;17.85;;;11.07;;
66870;SDS011;53780;44.998;9.926;2023-04-30T08:45:17;19.92;;;11.57;;
66870;SDS011;53780;44.998;9.926;2023-04-30T08:48:22;18.00;;;11.25;;
66870;SDS011;53780;44.998;9.926;2023-04-30T08:51:28;17.55;;;11.02;;
66870;SDS011;53780;44.998;9.926;2023-04-30T08:54:34;16.03;;;10.13;;
66870;SDS011;53780;44.998;9.926;2023-04-30T08:57:40;17.52;;;10.15;;
66870;SDS011;53780;44.998;9.926;2023-04-30T09:00:43;14.32;;;9.00;;
66870;SDS011;53780;44.998;9.926;2023-04-30T09:03:47;13.90;;;8.90;;
66870;SDS011;53780;44.998;9.926;2023-04-30T09:06:51;13.85;;;7.97;;
66870;SDS011;53780;44.998;9.926;2023-04-30T09:10:01;12.07;;;7.27;;
66870;SDS011;53780;44.998;9.926;2023-04-30T09:13:07;15.63;;;8.35;;
66870;SDS011;53780;44.998;9.926;2023-04-30T09:16:11;14.55;;;8.65;;
66870;SDS011;53780;44.998;9.926;2023-04-30T09:19:23;12.85;;;8.18;;
66870;SDS011;53780;44.998;9.926;2023-04-30T09:22:31;12.65;;;8.25;;
66870;SDS011;53780;44.998;9.926;2023-04-30T09:25:39;13.23;;;8.33;;
66870;SDS011;53780;44.998;9.926;2023-04-30T09:28:53;10.80;;;7.22;;
66870;SDS011;53780;44.998;9.926;2023-04-30T09:32:06;14.38;;;8.27;;
66870;SDS011;53780;44.998;9.926;2023-04-30T09:35:30;12.82;;;7.43;;
66870;SDS011;53780;44.998;9.926;2023-04-30T09:38:34;13.55;;;8.40;;
66870;SDS011;53780;44.998;9.926;2023-04-30T09:41:38;11.97;;;7.20;;
66870;SDS011;53780;44.998;9.926;2023-04-30T09:44:42;12.35;;;7.63;;
66870;SDS011;53780;44.998;9.926;2023-04-30T09:47:47;12.13;;;7.47;;
66870;SDS011;53780;44.998;9.926;2023-04-30T09:50:51;14.18;;;8.05;;
66870;SDS011;53780;44.998;9.926;2023-04-30T09:53:57;14.13;;;7.80;;
66870;SDS011;53780;44.998;9.926;2023-04-30T09:57:01;12.00;;;7.50;;
66870;SDS011;53780;44.998;9.926;2023-04-30T10:00:05;13.00;;;7.53;;
66870;SDS011;53780;44.998;9.926;2023-04-30T10:03:13;12.00;;;7.40;;
66870;SDS011;53780;44.998;9.926;2023-04-30T10:06:20;12.57;;;7.32;;
66870;SDS011;53780;44.998;9.926;2023-04-30T10:09:28;13.32;;;7.82;;
66870;SDS011;53780;44.998;9.926;2023-04-30T10:12:38;10.83;;;6.60;;
66870;SDS011;53780;44.998;9.926;2023-04-30T10:15:47;13.52;;;7.85;;
66870;SDS011;53780;44.998;9.926;2023-04-30T10:18:54;12.45;;;7.07;;
66870;SDS011;53780;44.998;9.926;2023-04-30T10:22:01;11.35;;;7.07;;
66870;SDS011;53780;44.998;9.926;2023-04-30T10:25:06;10.73;;;5.88;;
66870;SDS011;53780;44.998;9.926;2023-04-30T10:28:14;10.17;;;6.20;;
66870;SDS011;53780;44.998;9.926;2023-04-30T10:31:18;10.75;;;6.10;;
66870;SDS011;53780;44.998;9.926;2023-04-30T10:34:45;11.02;;;6.45;;
66870;SDS011;53780;44.998;9.926;2023-04-30T10:41:20;11.30;;;6.00;;
66870;SDS011;53780;44.998;9.926;2023-04-30T10:44:24;13.43;;;7.03;;
66870;SDS011;53780;44.998;9.926;2023-04-30T10:47:29;10.77;;;6.50;;
66870;SDS011;53780;44.998;9.926;2023-04-30T10:50:40;14.75;;;7.40;;
66870;SDS011;53780;44.998;9.926;2023-04-30T10:53:46;11.02;;;6.22;;
66870;SDS011;53780;44.998;9.926;2023-04-30T10:57:11;11.65;;;6.82;;
66870;SDS011;53780;44.998;9.926;2023-04-30T11:00:17;11.88;;;6.60;;
66870;SDS011;53780;44.998;9.926;2023-04-30T11:03:22;11.13;;;6.80;;
66870;SDS011;53780;44.998;9.926;2023-04-30T11:06:27;10.65;;;6.55;;
66870;SDS011;53780;44.998;9.926;2023-04-30T11:10:11;11.27;;;5.70;;
66870;SDS011;53780;44.998;9.926;2023-04-30T11:13:16;10.52;;;5.95;;
66870;SDS011;53780;44.998;9.926;2023-04-30T11:16:27;11.80;;;5.78;;
66870;SDS011;53780;44.998;9.926;2023-04-30T11:19:33;10.57;;;5.87;;
66870;SDS011;53780;44.998;9.926;2023-04-30T11:22:37;11.40;;;5.70;;
66870;SDS011;53780;44.998;9.926;2023-04-30T11:25:42;10.45;;;5.57;;
66870;SDS011;53780;44.998;9.926;2023-04-30T11:28:52;11.32;;;6.28;;
66870;SDS011;53780;44.998;9.926;2023-04-30T11:31:59;10.00;;;5.22;;
66870;SDS011;53780;44.998;9.926;2023-04-30T11:35:06;9.10;;;5.10;;
66870;SDS011;53780;44.998;9.926;2023-04-30T11:38:13;11.43;;;5.78;;
66870;SDS011;53780;44.998;9.926;2023-04-30T11:41:19;13.90;;;5.35;;
66870;SDS011;53780;44.998;9.926;2023-04-30T11:44:28;9.10;;;5.03;;
66870;SDS011;53780;44.998;9.926;2023-04-30T11:47:45;8.60;;;4.75;;
66870;SDS011;53780;44.998;9.926;2023-04-30T11:50:50;11.55;;;4.78;;
66870;SDS011;53780;44.998;9.926;2023-04-30T11:53:55;10.53;;;5.23;;
66870;SDS011;53780;44.998;9.926;2023-04-30T11:57:00;9.40;;;4.25;;
66870;SDS011;53780;44.998;9.926;2023-04-30T12:00:16;9.45;;;4.70;;
66870;SDS011;53780;44.998;9.926;2023-04-30T12:03:26;8.15;;;4.38;;
66870;SDS011;53780;44.998;9.926;2023-04-30T12:06:32;9.48;;;4.80;;
66870;SDS011;53780;44.998;9.926;2023-04-30T12:09:57;10.50;;;4.30;;
66870;SDS011;53780;44.998;9.926;2023-04-30T12:13:01;8.75;;;4.85;;
66870;SDS011;53780;44.998;9.926;2023-04-30T12:16:05;9.13;;;4.72;;
66870;SDS011;53780;44.998;9.926;2023-04-30T12:19:10;7.88;;;4.40;;
66870;SDS011;53780;44.998;9.926;2023-04-30T12:22:15;9.63;;;4.50;;
66870;SDS011;53780;44.998;9.926;2023-04-30T12:25:20;12.50;;;5.67;;
66870;SDS011;53780;44.998;9.926;2023-04-30T12:28:25;8.90;;;4.70;;
66870;SDS011;53780;44.998;9.926;2023-04-30T12:31:30;10.02;;;4.70;;
66870;SDS011;53780;44.998;9.926;2023-04-30T12:34:36;9.40;;;4.93;;
66870;SDS011;53780;44.998;9.926;2023-04-30T12:37:42;9.60;;;5.43;;
66870;SDS011;53780;44.998;9.926;2023-04-30T12:40:47;9.68;;;5.20;;
66870;SDS011;53780;44.998;9.926;2023-04-30T12:44:11;10.23;;;5.83;;
66870;SDS011;53780;44.998;9.926;2023-04-30T12:47:18;13.35;;;5.50;;
66870;SDS011;53780;44.998;9.926;2023-04-30T12:50:23;11.32;;;6.05;;
66870;SDS011;53780;44.998;9.926;2023-04-30T12:53:27;12.70;;;5.80;;
66870;SDS011;53780;44.998;9.926;2023-04-30T12:56:32;11.95;;;6.72;;
66870;SDS011;53780;44.998;9.926;2023-04-30T12:59:37;13.80;;;6.07;;
66870;SDS011;53780;44.998;9.926;2023-04-30T13:02:41;10.75;;;5.90;;
66870;SDS011;53780;44.998;9.926;2023-04-30T13:05:45;10.30;;;6.32;;
66870;SDS011;53780;44.998;9.926;2023-04-30T13:08:51;13.40;;;6.20;;
66870;SDS011;53780;44.998;9.926;2023-04-30T13:11:55;13.70;;;6.90;;
66870;SDS011;53780;44.998;9.926;2023-04-30T13:14:59;12.03;;;6.47;;
66870;SDS011;53780;44.998;9.926;2023-04-30T13:18:03;11.07;;;5.78;;
66870;SDS011;53780;44.998;9.926;2023-04-30T13:21:06;12.38;;;6.10;;
66870;SDS011;53780;44.998;9.926;2023-04-30T13:24:10;11.02;;;5.93;;
66870;SDS011;53780;44.998;9.926;2023-04-30T13:27:14;11.10;;;5.82;;
66870;SDS011;53780;44.998;9.926;2023-04-30T13:30:18;10.37;;;6.30;;
66870;SDS011;53780;44.998;9.926;2023-04-30T13:33:22;14.02;;;6.68;;
66870;SDS011;53780;44.998;9.926;2023-04-30T13:36:26;12.02;;;5.68;;
66870;SDS011;53780;44.998;9.926;2023-04-30T13:39:31;11.48;;;7.13;;
66870;SDS011;53780;44.998;9.926;2023-04-30T13:42:36;11.55;;;6.35;;
66870;SDS011;53780;44.998;9.926;2023-04-30T13:45:41;10.83;;;6.30;;
66870;SDS011;53780;44.998;9.926;2023-04-30T13:48:45;11.88;;;7.10;;
66870;SDS011;53780;44.998;9.926;2023-04-30T13:51:51;10.68;;;6.22;;
66870;SDS011;53780;44.998;9.926;2023-04-30T13:54:55;14.30;;;6.22;;
66870;SDS011;53780;44.998;9.926;2023-04-30T13:58:00;11.98;;;6.20;;
66870;SDS011;53780;44.998;9.926;2023-04-30T14:01:04;12.23;;;6.70;;
66870;SDS011;53780;44.998;9.926;2023-04-30T14:04:08;12.38;;;6.50;;
66870;SDS011;53780;44.998;9.926;2023-04-30T14:07:12;13.15;;;6.65;;
66870;SDS011;53780;44.998;9.926;2023-04-30T14:10:16;10.30;;;6.10;;
66870;SDS011;53780;44.998;9.926;2023-04-30T14:13:20;14.23;;;6.55;;
66870;SDS011;53780;44.998;9.926;2023-04-30T14:16:24;12.27;;;6.70;;
66870;SDS011;53780;44.998;9.926;2023-04-30T14:19:28;11.32;;;6.53;;
66870;SDS011;53780;44.998;9.926;2023-04-30T14:22:32;13.38;;;6.28;;
66870;SDS011;53780;44.998;9.926;2023-04-30T14:25:40;15.05;;;6.80;;
66870;SDS011;53780;44.998;9.926;2023-04-30T14:28:44;11.80;;;6.38;;
66870;SDS011;53780;44.998;9.926;2023-04-30T14:31:49;12.97;;;5.77;;
66870;SDS011;53780;44.998;9.926;2023-04-30T14:34:54;11.80;;;6.40;;
66870;SDS011;53780;44.998;9.926;2023-04-30T14:37:58;14.80;;;6.90;;
66870;SDS011;53780;44.998;9.926;2023-04-30T14:41:02;12.60;;;7.05;;
66870;SDS011;53780;44.998;9.926;2023-04-30T14:44:06;13.50;;;7.32;;
66870;SDS011;53780;44.998;9.926;2023-04-30T14:47:10;12.60;;;7.17;;
66870;SDS011;53780;44.998;9.926;2023-04-30T14:50:14;13.23;;;6.90;;
66870;SDS011;53780;44.998;9.926;2023-04-30T14:53:19;13.07;;;7.63;;
66870;SDS011;53780;44.998;9.926;2023-04-30T14:56:23;12.20;;;6.97;;
66870;SDS011;53780;44.998;9.926;2023-04-30T14:59:27;13.30;;;7.80;;
66870;SDS011;53780;44.998;9.926;2023-04-30T15:02:32;12.40;;;7.17;;
66870;SDS011;53780;44.998;9.926;2023-04-30T15:05:36;11.43;;;6.80;;
66870;SDS011;53780;44.998;9.926;2023-04-30T15:08:40;11.18;;;5.90;;
66870;SDS011;53780;44.998;9.926;2023-04-30T15:11:44;9.73;;;5.30;;
66870;SDS011;53780;44.998;9.926;2023-04-30T15:14:48;12.10;;;5.72;;
66870;SDS011;53780;44.998;9.926;2023-04-30T15:17:53;12.03;;;6.70;;
66870;SDS011;53780;44.998;9.926;2023-04-30T15:21:00;13.07;;;6.80;;
66870;SDS011;53780;44.998;9.926;2023-04-30T15:24:04;12.57;;;7.00;;
66870;SDS011;53780;44.998;9.926;2023-04-30T15:27:08;15.27;;;7.10;;
66870;SDS011;53780;44.998;9.926;2023-04-30T15:30:12;11.20;;;6.55;;
66870;SDS011;53780;44.998;9.926;2023-04-30T15:33:15;16.07;;;6.63;;
66870;SDS011;53780;44.998;9.926;2023-04-30T15:36:20;9.13;;;5.60;;
66870;SDS011;53780;44.998;9.926;2023-04-30T15:39:25;11.68;;;6.45;;
66870;SDS011;53780;44.998;9.926;2023-04-30T15:42:30;13.25;;;7.20;;
66870;SDS011;53780;44.998;9.926;2023-04-30T15:45:34;11.88;;;6.85;;
66870;SDS011;53780;44.998;9.926;2023-04-30T15:48:37;12.40;;;7.43;;
66870;SDS011;53780;44.998;9.926;2023-04-30T15:51:42;12.38;;;7.72;;
66870;SDS011;53780;44.998;9.926;2023-04-30T15:54:47;14.48;;;6.88;;
66870;SDS011;53780;44.998;9.926;2023-04-30T15:57:51;10.18;;;6.00;;
66870;SDS011;53780;44.998;9.926;2023-04-30T16:00:55;10.82;;;5.22;;
66870;SDS011;53780;44.998;9.926;2023-04-30T16:03:59;9.07;;;5.27;;
66870;SDS011;53780;44.998;9.926;2023-04-30T16:07:03;10.85;;;5.40;;
66870;SDS011;53780;44.998;9.926;2023-04-30T16:10:07;10.40;;;5.20;;
66870;SDS011;53780;44.998;9.926;2023-04-30T16:13:12;10.25;;;5.57;;
66870;SDS011;53780;44.998;9.926;2023-04-30T16:16:16;9.20;;;5.53;;
66870;SDS011;53780;44.998;9.926;2023-04-30T16:19:20;13.27;;;6.63;;
66870;SDS011;53780;44.998;9.926;2023-04-30T16:22:23;10.30;;;6.03;;
66870;SDS011;53780;44.998;9.926;2023-04-30T16:25:27;10.70;;;5.80;;
66870;SDS011;53780;44.998;9.926;2023-04-30T16:28:31;11.98;;;6.47;;
66870;SDS011;53780;44.998;9.926;2023-04-30T16:31:34;11.20;;;5.85;;
66870;SDS011;53780;44.998;9.926;2023-04-30T16:34:38;12.40;;;6.30;;
66870;SDS011;53780;44.998;9.926;2023-04-30T16:37:42;11.82;;;6.20;;
66870;SDS011;53780;44.998;9.926;2023-04-30T16:40:46;14.48;;;6.32;;
66870;SDS011;53780;44.998;9.926;2023-04-30T16:43:50;10.95;;;7.05;;
66870;SDS011;53780;44.998;9.926;2023-04-30T16:46:54;11.90;;;6.63;;
66870;SDS011;53780;44.998;9.926;2023-04-30T16:50:02;15.53;;;7.30;;
66870;SDS011;53780;44.998;9.926;2023-04-30T16:53:06;12.20;;;7.20;;
66870;SDS011;53780;44.998;9.926;2023-04-30T16:56:10;14.32;;;7.05;;
66870;SDS011;53780;44.998;9.926;2023-04-30T16:59:14;12.90;;;7.10;;
66870;SDS011;53780;44.998;9.926;2023-04-30T17:02:18;12.57;;;6.63;;
66870;SDS011;53780;44.998;9.926;2023-04-30T17:05:22;13.17;;;6.53;;
66870;SDS011;53780;44.998;9.926;2023-04-30T17:08:26;9.93;;;5.93;;
66870;SDS011;53780;44.998;9.926;2023-04-30T17:11:30;11.02;;;6.75;;
66870;SDS011;53780;44.998;9.926;2023-04-30T17:14:36;11.02;;;6.03;;
66870;SDS011;53780;44.998;9.926;2023-04-30T17:17:40;9.30;;;5.88;;
66870;SDS011;53780;44.998;9.926;2023-04-30T17:20:44;10.50;;;6.47;;
66870;SDS011;53780;44.998;9.926;2023-04-30T17:23:48;11.43;;;6.53;;
66870;SDS011;53780;44.998;9.926;2023-04-30T17:26:52;10.75;;;6.70;;
66870;SDS011;53780;44.998;9.926;2023-04-30T17:29:57;11.98;;;6.95;;
66870;SDS011;53780;44.998;9.926;2023-04-30T17:33:01;13.18;;;7.63;;
66870;SDS011;53780;44.998;9.926;2023-04-30T17:36:07;12.67;;;7.00;;
66870;SDS011;53780;44.998;9.926;2023-04-30T17:39:11;14.27;;;7.32;;
66870;SDS011;53780;44.998;9.926;2023-04-30T17:42:15;12.90;;;7.93;;
66870;SDS011;53780;44.998;9.926;2023-04-30T17:45:20;11.48;;;7.13;;
66870;SDS011;53780;44.998;9.926;2023-04-30T17:48:24;11.18;;;7.15;;
66870;SDS011;53780;44.998;9.926;2023-04-30T17:51:28;12.47;;;7.73;;
66870;SDS011;53780;44.998;9.926;2023-04-30T17:54:34;12.00;;;7.93;;
66870;SDS011;53780;44.998;9.926;2023-04-30T17:57:39;14.50;;;8.05;;
66870;SDS011;53780;44.998;9.926;2023-04-30T18:00:43;13.63;;;7.78;;
66870;SDS011;53780;44.998;9.926;2023-04-30T18:03:48;13.40;;;7.85;;
66870;SDS011;53780;44.998;9.926;2023-04-30T18:06:51;12.07;;;7.60;;
66870;SDS011;53780;44.998;9.926;2023-04-30T18:09:55;11.98;;;7.20;;
66870;SDS011;53780;44.998;9.926;2023-04-30T18:13:00;12.57;;;7.15;;
66870;SDS011;53780;44.998;9.926;2023-04-30T18:16:03;14.13;;;7.40;;
66870;SDS011;53780;44.998;9.926;2023-04-30T18:19:08;12.82;;;6.65;;
66870;SDS011;53780;44.998;9.926;2023-04-30T18:22:11;11.37;;;7.00;;
66870;SDS011;53780;44.998;9.926;2023-04-30T18:25:16;10.55;;;6.07;;
66870;SDS011;53780;44.998;9.926;2023-04-30T18:28:20;10.27;;;6.70;;
66870;SDS011;53780;44.998;9.926;2023-04-30T18:31:25;11.73;;;6.95;;
66870;SDS011;53780;44.998;9.926;2023-04-30T18:34:30;12.35;;;6.78;;
66870;SDS011;53780;44.998;9.926;2023-04-30T18:37:34;11.17;;;6.60;;